UPDATE Mit 1. Juli wird auf eine neue Wetterseite umgestellt
Wer schon probieren möchte kann unter https://wetter.hildner.at gerne testen
Die Seite befindet sich noch im Aufbau

Es liegt ein Kommunikationsproblem . Gehen Sie direkt zur Website Meteoalarm : www.meteoalarm.eu und überprüfen Sie die Wetterwarnungen..


Rindlberg West Mehr Informationen Rindlberg West


Stuetzi - Rindlberg Ost Mehr Informationen Stuetzi - Rindlberg Ost


Regenradar Mehr Informationen rain snow radar


Sie finden meine Wetter-Infos auch auf:

Weather Underground

AWEKAS



IOBERSTE7 History tables / reports. Script startWUhistory.php

Wählen sie eine andere Periode ( ausblenden )

Einheiten Zeitraum Benutzerdef. Zeitraum Direkt zu
metrisch Englisch Beide
Täglich Wöchentlich Monatlich Jährlich
Beide Datumseingaben nutzen um einen Bereich festzulegen
vorheriger Tag
Mit diesem Datum

WU Grafiken für diese Periode ( klicken ) Loading the graph can take up to a minute!


Täglich Zusammenfassung für Freitag Feb 23 2024
Zeit Temp. ( °C ) Taupt. ( °C ) Wind ( km/h ) von Windböen ( km/h ) Luftdruck ( hPa ) Luftf.( % ) Regenrate ( cm )
Hoch4,3 1,2 9,0 Norden ( 30/124 ) 11,0 994,4 81 -
Durchchnittswerte4,0 0,8 4,3 Windstille #9/29 5,7 994,0 79 -
Tief3,5 0,3 -   0,0 993,2 78 -
Täglich tabellarische Details für Freitag Feb 23 2024
Zeit Temp. ( °C ) Taupt. ( °C ) Wind ( km/h ) von Windböen ( km/h ) Luftdruck ( hPa ) Luftf.( % ) Regenrate ( cm )
00:04 4,2 1,1 7,0 NNO 10,0 994,1 80 -
00:09 4,2 1,1 7,0 NW 8,0 994,1 80 -
00:14 4,2 1,1 6,0 NW 8,0 994,1 80 -
00:19 4,2 1,1 8,0 SW 11,0 994,1 80 -
00:24 4,3 1,2 7,0 SW 8,0 994,1 80 -
00:29 4,3 1,2 5,0 SW 6,0 994,1 80 -
00:34 4,3 1,2   Windstille 8,0 994,1 80 -
00:39 4,3 1,2 5,0 Westen 6,0 994,1 80 -
00:44 4,3 1,2 5,0 Westen 6,0 994,1 80 -
00:49 4,3 1,0 5,0 Westen 5,0 994,1 79 -
00:54 4,3 1,0 5,0 Westen 6,0 994,1 79 -
00:59 4,2 0,9 1,0 Westen 5,0 994,1 79 -
01:04 4,2 0,7   Windstille   994,2 78 -
01:09 4,1 0,6   Windstille   994,2 78 -
01:14 4,1 0,6   Windstille   994,2 78 -
01:19 4,0 0,7   Windstille   994,2 79 -
01:24 4,0 0,7   Windstille   994,2 79 -
01:29 4,0 0,7   Windstille   994,3 79 -
01:34 3,9 0,6   Windstille 5,0 994,3 79 -
01:39 3,8 0,5 5,0 Westen 6,0 994,3 79 -
01:44 3,8 0,5   Windstille   993,8 79 -
01:49 3,7 0,4 6,0 WNW 8,0 993,2 79 -
01:54 3,6 0,3 5,0 NNO 6,0 993,3 79 -
01:59 3,6 0,3 8,0 NNO 8,0 993,3 79 -
02:04 3,5 0,4 7,0 Norden 8,0 993,3 80 -
02:09 3,5 0,4 7,0 Norden 8,0 993,3 80 -
02:14 3,5 0,4 7,0 Norden 8,0 994,4 80 -
02:19 3,6 0,4 9,0 Norden 10,0 994,4 80 -
02:24 3,7 0,7 9,0 NNW 11,0 994,4 81 -
Täglich Zusammenfassung für Freitag Feb 23 2024
Zeit Temp. ( °C ) Taupt. ( °C ) Wind ( km/h ) von Windböen ( km/h ) Luftdruck ( hPa ) Luftf.( % ) Regenrate ( cm )
Hoch4,3 1,2 9,0 Norden ( 30/124 ) 11,0 994,4 81 -
Durchchnittswerte4,0 0,8 4,3 Windstille #9/29 5,7 994,0 79 -
Tief3,5 0,3 -   0,0 993,2 78 -
Täglich tabellarische Details für Freitag Feb 23 2024
Zeit Temp. ( °C ) Taupt. ( °C ) Wind ( km/h ) von Windböen ( km/h ) Luftdruck ( hPa ) Luftf.( % ) Regenrate ( cm )
00:04 4,2 1,1 7,0 NNO 10,0 994,1 80 -
00:09 4,2 1,1 7,0 NW 8,0 994,1 80 -
00:14 4,2 1,1 6,0 NW 8,0 994,1 80 -
00:19 4,2 1,1 8,0 SW 11,0 994,1 80 -
00:24 4,3 1,2 7,0 SW 8,0 994,1 80 -
00:29 4,3 1,2 5,0 SW 6,0 994,1 80 -
00:34 4,3 1,2   Windstille 8,0 994,1 80 -
00:39 4,3 1,2 5,0 Westen 6,0 994,1 80 -
00:44 4,3 1,2 5,0 Westen 6,0 994,1 80 -
00:49 4,3 1,0 5,0 Westen 5,0 994,1 79 -
00:54 4,3 1,0 5,0 Westen 6,0 994,1 79 -
00:59 4,2 0,9 1,0 Westen 5,0 994,1 79 -
01:04 4,2 0,7   Windstille   994,2 78 -
01:09 4,1 0,6   Windstille   994,2 78 -
01:14 4,1 0,6   Windstille   994,2 78 -
01:19 4,0 0,7   Windstille   994,2 79 -
01:24 4,0 0,7   Windstille   994,2 79 -
01:29 4,0 0,7   Windstille   994,3 79 -
01:34 3,9 0,6   Windstille 5,0 994,3 79 -
01:39 3,8 0,5 5,0 Westen 6,0 994,3 79 -
01:44 3,8 0,5   Windstille   993,8 79 -
01:49 3,7 0,4 6,0 WNW 8,0 993,2 79 -
01:54 3,6 0,3 5,0 NNO 6,0 993,3 79 -
01:59 3,6 0,3 8,0 NNO 8,0 993,3 79 -
02:04 3,5 0,4 7,0 Norden 8,0 993,3 80 -
02:09 3,5 0,4 7,0 Norden 8,0 993,3 80 -
02:14 3,5 0,4 7,0 Norden 8,0 994,4 80 -
02:19 3,6 0,4 9,0 Norden 10,0 994,4 80 -
02:24 3,7 0,7 9,0 NNW 11,0 994,4 81 -

Lade ein Kopie deiner Daten  here

Meine Wetterdaten gespeichert auf Weather Underground. Script entwickelt von Jim McMurry. Rewritten for template use Leuven-Template